createdAt,value
2018-04-17T00:00:29.147Z,98.79
2018-04-17T00:01:29.132Z,99.65
2018-04-17T00:02:29.113Z,99.94
2018-04-17T00:03:29.096Z,99.75
2018-04-17T00:04:29.077Z,99.08
2018-04-17T00:05:29.073Z,99.08
2018-04-17T00:06:29.061Z,99.27
2018-04-17T00:07:29.035Z,98.99
2018-04-17T00:08:29.026Z,98.79
2018-04-17T00:09:28.997Z,98.32
2018-04-17T00:10:29.000Z,98.51
2018-04-17T00:11:28.987Z,98.32
2018-04-17T00:12:28.956Z,98.79
2018-04-17T00:13:28.944Z,98.41
2018-04-17T00:14:28.928Z,99.60
2018-04-17T00:15:28.920Z,99.98
2018-04-17T00:16:28.905Z,99.89
2018-04-17T00:17:28.879Z,99.99
2018-04-17T00:18:28.869Z,99.99
2018-04-17T00:19:28.864Z,99.99
2018-04-17T00:20:28.853Z,99.99
2018-04-17T00:21:28.825Z,99.94
2018-04-17T00:22:30.697Z,99.99
2018-04-17T00:23:28.787Z,99.99
2018-04-17T00:24:28.787Z,99.84
2018-04-17T00:25:28.758Z,99.99
2018-04-17T00:26:28.748Z,99.27
2018-04-17T00:27:28.733Z,99.46
2018-04-17T00:28:28.750Z,98.60
2018-04-17T00:29:28.697Z,98.51
2018-04-17T00:30:28.674Z,99.37
2018-04-17T00:31:28.671Z,99.99
2018-04-17T00:32:28.652Z,99.65
2018-04-17T00:33:28.636Z,99.84
2018-04-17T00:34:28.620Z,99.55
2018-04-17T00:35:28.605Z,99.84
2018-04-17T00:36:28.589Z,99.65
2018-04-17T00:37:28.572Z,99.99
2018-04-17T00:38:28.549Z,99.99
2018-04-17T00:39:28.543Z,99.99
2018-04-17T00:40:28.521Z,99.99
2018-04-17T00:41:28.504Z,99.99
2018-04-17T00:42:28.495Z,99.99
2018-04-17T00:43:28.479Z,99.84
2018-04-17T00:44:28.464Z,99.99
2018-04-17T00:45:28.447Z,99.65
2018-04-17T00:46:28.425Z,99.94
2018-04-17T00:47:28.419Z,99.99
2018-04-17T00:48:28.403Z,99.46
2018-04-17T00:49:28.387Z,99.84
2018-04-17T00:50:28.371Z,99.84
2018-04-17T00:51:28.362Z,99.99
2018-04-17T00:52:28.340Z,99.75
2018-04-17T00:53:28.324Z,99.99
2018-04-17T00:54:28.309Z,99.79
2018-04-17T00:55:28.292Z,99.99
2018-04-17T00:56:28.286Z,99.99
2018-04-17T00:57:28.256Z,99.99
2018-04-17T00:58:28.240Z,99.99
2018-04-17T00:59:28.232Z,99.41
2018-04-17T01:00:28.219Z,99.99
2018-04-17T01:01:28.209Z,99.99
2018-04-17T01:02:28.186Z,99.99
2018-04-17T01:03:28.163Z,99.99
2018-04-17T01:04:28.160Z,99.99
2018-04-17T01:05:28.138Z,99.99
2018-04-17T01:06:28.119Z,99.99
2018-04-17T01:07:28.106Z,99.99
2018-04-17T01:08:28.090Z,99.99
2018-04-17T01:09:28.080Z,99.99
2018-04-17T01:10:28.058Z,99.99
2018-04-17T01:11:28.047Z,99.99
2018-04-17T01:12:28.020Z,99.99
2018-04-17T01:13:28.010Z,99.99
2018-04-17T01:14:27.993Z,99.99
2018-04-17T01:15:27.983Z,99.99
2018-04-17T01:16:27.964Z,99.99
2018-04-17T01:17:27.948Z,99.99
2018-04-17T01:18:27.932Z,99.99
2018-04-17T01:19:27.912Z,99.99
2018-04-17T01:20:27.897Z,99.99
2018-04-17T01:21:27.887Z,99.99
2018-04-17T01:22:27.877Z,99.99
2018-04-17T01:23:27.855Z,99.99
2018-04-17T01:24:27.839Z,99.99
2018-04-17T01:25:27.820Z,99.99
2018-04-17T01:26:27.800Z,99.99
2018-04-17T01:27:27.800Z,99.99
2018-04-17T01:28:27.782Z,99.99
2018-04-17T01:29:27.763Z,99.99
2018-04-17T01:30:27.751Z,99.99
2018-04-17T01:31:27.724Z,99.99
2018-04-17T01:32:27.720Z,99.99
2018-04-17T01:33:27.699Z,99.99
2018-04-17T01:34:27.685Z,99.99
2018-04-17T01:35:27.663Z,99.99
2018-04-17T01:36:27.659Z,99.99
2018-04-17T01:37:27.631Z,99.99
2018-04-17T01:38:27.628Z,99.99
2018-04-17T01:39:27.605Z,99.99
2018-04-17T01:40:27.586Z,99.99
2018-04-17T01:41:27.589Z,99.99
2018-04-17T01:42:27.560Z,99.99
2018-04-17T01:43:27.541Z,99.99
2018-04-17T01:44:27.531Z,99.99
2018-04-17T01:45:27.509Z,99.99
2018-04-17T01:46:27.486Z,99.99
2018-04-17T01:47:27.474Z,99.99
2018-04-17T01:48:27.464Z,99.99
2018-04-17T01:49:27.448Z,99.99
2018-04-17T01:50:27.441Z,99.99
2018-04-17T01:51:27.420Z,99.99
2018-04-17T01:52:27.400Z,99.99
2018-04-17T01:53:27.395Z,99.99
2018-04-17T01:54:27.410Z,99.99
2018-04-17T01:55:27.354Z,99.99
2018-04-17T01:56:27.332Z,99.99
2018-04-17T01:57:27.316Z,99.99
2018-04-17T01:58:27.307Z,99.99
2018-04-17T01:59:27.289Z,99.99
2018-04-17T02:00:27.276Z,99.99
2018-04-17T02:01:27.254Z,99.99
2018-04-17T02:02:27.251Z,99.99
2018-04-17T02:03:27.238Z,99.99
2018-04-17T02:04:27.219Z,99.99
2018-04-17T02:05:27.193Z,99.99
2018-04-17T02:06:27.193Z,99.99
2018-04-17T02:07:27.171Z,99.99
2018-04-17T02:08:27.160Z,99.99
2018-04-17T02:09:27.140Z,99.99
2018-04-17T02:10:27.117Z,99.99
2018-04-17T02:11:27.117Z,99.99
2018-04-17T02:12:27.095Z,99.99
2018-04-17T02:13:27.082Z,99.99
2018-04-17T02:14:27.056Z,99.99
2018-04-17T02:15:27.039Z,99.99
2018-04-17T02:16:27.049Z,99.99
2018-04-17T02:17:27.012Z,99.99
2018-04-17T02:18:26.988Z,99.99
2018-04-17T02:19:26.980Z,99.99
2018-04-17T02:20:26.973Z,99.99
2018-04-17T02:21:26.956Z,99.99
2018-04-17T02:22:26.927Z,99.99
2018-04-17T02:23:26.911Z,99.99
2018-04-17T02:24:26.901Z,99.99
2018-04-17T02:25:26.895Z,99.99
2018-04-17T02:26:26.866Z,99.99
2018-04-17T02:27:26.850Z,99.99
2018-04-17T02:28:26.832Z,99.99
2018-04-17T02:29:26.820Z,99.99
2018-04-17T02:30:26.809Z,99.99
2018-04-17T02:31:26.785Z,99.99
2018-04-17T02:32:26.789Z,99.99
2018-04-17T02:33:26.757Z,99.99
2018-04-17T02:34:26.733Z,99.99
2018-04-17T02:35:26.727Z,99.89
2018-04-17T02:36:26.718Z,99.99
2018-04-17T02:37:26.693Z,99.99
2018-04-17T02:38:26.673Z,99.99
2018-04-17T02:39:26.664Z,99.17
2018-04-17T02:40:26.651Z,99.99
2018-04-17T02:41:26.619Z,99.99
2018-04-17T02:42:26.606Z,99.99
2018-04-17T02:43:26.589Z,99.99
2018-04-17T02:44:26.582Z,99.99
2018-04-17T02:45:26.567Z,99.99
2018-04-17T02:46:26.609Z,99.99
2018-04-17T02:47:26.534Z,99.99
2018-04-17T02:48:26.512Z,99.99
2018-04-17T02:49:26.495Z,99.99
2018-04-17T02:50:26.476Z,99.99
2018-04-17T02:51:26.461Z,99.99
2018-04-17T02:52:26.447Z,99.99
2018-04-17T02:53:26.428Z,99.99
2018-04-17T02:54:26.413Z,99.99
2018-04-17T02:55:26.391Z,99.99
2018-04-17T02:56:26.383Z,99.99
2018-04-17T02:57:26.373Z,99.99
2018-04-17T02:58:26.346Z,99.99
2018-04-17T02:59:26.333Z,99.99
2018-04-17T03:00:26.323Z,99.99
2018-04-17T03:01:26.304Z,99.99
2018-04-17T03:02:26.278Z,99.99
2018-04-17T03:03:26.265Z,99.99
2018-04-17T03:04:26.246Z,99.99
2018-04-17T03:05:26.240Z,99.99
2018-04-17T03:06:26.208Z,99.99
2018-04-17T03:07:26.198Z,99.99
2018-04-17T03:08:26.176Z,99.99
2018-04-17T03:09:26.153Z,99.99
2018-04-17T03:10:26.143Z,99.99
2018-04-17T03:11:26.133Z,99.99
2018-04-17T03:12:26.120Z,99.99
2018-04-17T03:13:26.092Z,99.99
2018-04-17T03:14:26.092Z,99.99
2018-04-17T03:15:26.066Z,99.99
2018-04-17T03:16:26.051Z,99.99
2018-04-17T03:17:26.034Z,99.99
2018-04-17T03:18:26.025Z,99.99
2018-04-17T03:19:25.999Z,99.99
2018-04-17T03:20:25.976Z,99.99
2018-04-17T03:21:25.968Z,99.99
2018-04-17T03:22:25.958Z,99.99
2018-04-17T03:23:25.938Z,99.99
2018-04-17T03:24:25.919Z,99.99
2018-04-17T03:25:25.894Z,99.99
2018-04-17T03:26:25.871Z,99.99
2018-04-17T03:27:25.871Z,99.99
2018-04-17T03:28:25.855Z,99.99
2018-04-17T03:29:25.847Z,99.99
2018-04-17T03:30:25.813Z,99.99
2018-04-17T03:31:25.803Z,99.99
2018-04-17T03:32:25.784Z,99.99
2018-04-17T03:33:25.759Z,99.99
2018-04-17T03:34:25.749Z,99.99
2018-04-17T03:35:25.736Z,99.99
2018-04-17T03:36:25.717Z,99.99
2018-04-17T03:37:25.697Z,99.99
2018-04-17T03:38:25.697Z,99.99
2018-04-17T03:39:25.666Z,99.99
2018-04-17T03:40:25.652Z,99.99
2018-04-17T03:41:25.629Z,99.99
2018-04-17T03:42:25.620Z,99.99
2018-04-17T03:43:25.595Z,99.99
2018-04-17T03:44:25.600Z,99.99
2018-04-17T03:45:25.577Z,99.99
2018-04-17T03:46:25.541Z,99.99
2018-04-17T03:47:25.532Z,99.99
2018-04-17T03:48:25.528Z,99.99
2018-04-17T03:49:25.496Z,99.99
2018-04-17T03:50:25.486Z,99.99
2018-04-17T03:51:25.464Z,99.99
2018-04-17T03:52:25.438Z,99.99
2018-04-17T03:53:25.426Z,99.99
2018-04-17T03:54:25.421Z,99.99
2018-04-17T03:55:25.400Z,99.99
2018-04-17T03:56:25.376Z,99.99
2018-04-17T03:57:25.371Z,99.99
2018-04-17T03:58:25.366Z,99.99
2018-04-17T03:59:25.352Z,99.99
2018-04-17T04:00:25.313Z,99.99
2018-04-17T04:01:25.301Z,99.99
2018-04-17T04:02:25.288Z,99.99
2018-04-17T04:03:25.259Z,99.99
2018-04-17T04:04:25.251Z,99.99
2018-04-17T04:05:25.225Z,99.99
2018-04-17T04:06:25.218Z,99.99
2018-04-17T04:07:25.195Z,99.99
2018-04-17T04:08:25.183Z,99.99
2018-04-17T04:09:25.157Z,99.99
2018-04-17T04:10:25.174Z,99.99
2018-04-17T04:11:25.138Z,99.99
2018-04-17T04:12:25.116Z,99.99
2018-04-17T04:13:25.103Z,99.99
2018-04-17T04:14:25.082Z,99.99
2018-04-17T04:15:25.061Z,99.99
2018-04-17T04:16:25.049Z,99.99
2018-04-17T04:17:25.029Z,99.99
2018-04-17T04:18:25.007Z,99.99
2018-04-17T04:19:25.000Z,99.99
2018-04-17T04:20:24.973Z,99.99
2018-04-17T04:21:24.960Z,99.99
2018-04-17T04:22:24.931Z,99.99
2018-04-17T04:23:24.921Z,99.99
2018-04-17T04:24:24.909Z,99.99
2018-04-17T04:25:24.889Z,99.99
2018-04-17T04:26:24.872Z,99.99
2018-04-17T04:27:24.882Z,99.99
2018-04-17T04:28:24.835Z,99.99
2018-04-17T04:29:24.819Z,99.99
2018-04-17T04:30:24.822Z,99.99
2018-04-17T04:31:24.790Z,99.99
2018-04-17T04:32:24.777Z,99.99
2018-04-17T04:33:24.746Z,99.99
2018-04-17T04:34:24.736Z,99.99
2018-04-17T04:35:24.718Z,99.99
2018-04-17T04:36:24.701Z,99.99
2018-04-17T04:37:24.685Z,99.99
2018-04-17T04:38:24.659Z,99.99
2018-04-17T04:39:24.649Z,99.99
2018-04-17T04:40:24.638Z,99.99
2018-04-17T04:41:24.621Z,99.99
2018-04-17T04:42:24.592Z,99.99
2018-04-17T04:43:24.581Z,99.99
2018-04-17T04:44:24.568Z,99.99
2018-04-17T04:45:24.546Z,99.99
2018-04-17T04:46:24.518Z,99.99
2018-04-17T04:47:24.511Z,99.99
2018-04-17T04:48:24.492Z,99.99
2018-04-17T04:49:24.474Z,99.99
2018-04-17T04:50:24.463Z,99.99
2018-04-17T04:51:24.450Z,99.99
2018-04-17T04:52:24.431Z,99.99
2018-04-17T04:53:24.409Z,99.99
2018-04-17T04:54:24.489Z,99.99
2018-04-17T04:55:24.384Z,99.99
2018-04-17T04:56:24.359Z,99.99
2018-04-17T04:57:24.352Z,99.99
2018-04-17T04:58:24.336Z,99.99
2018-04-17T04:59:24.309Z,99.99
2018-04-17T05:00:24.291Z,99.99
2018-04-17T05:01:24.291Z,99.99
2018-04-17T05:02:24.259Z,99.99
2018-04-17T05:03:24.244Z,99.99
2018-04-17T05:04:24.231Z,99.99
2018-04-17T05:05:24.205Z,99.99
2018-04-17T05:06:24.196Z,99.99
2018-04-17T05:07:24.173Z,99.99
2018-04-17T05:08:24.153Z,99.99
2018-04-17T05:09:24.144Z,99.99
2018-04-17T05:10:24.124Z,99.99
2018-04-17T05:11:24.107Z,99.99
2018-04-17T05:12:24.102Z,99.99
2018-04-17T05:13:24.074Z,99.99
2018-04-17T05:14:24.054Z,99.99
2018-04-17T05:15:24.036Z,99.99
2018-04-17T05:16:24.017Z,99.99
2018-04-17T05:17:24.006Z,99.99
2018-04-17T05:18:24.037Z,99.99
2018-04-17T05:19:23.970Z,99.99
2018-04-17T05:20:23.954Z,99.99
2018-04-17T05:21:23.939Z,99.99
2018-04-17T05:22:23.923Z,99.99
2018-04-17T05:23:23.926Z,99.99
2018-04-17T05:24:23.897Z,99.99
2018-04-17T05:25:23.878Z,99.99
2018-04-17T05:26:23.849Z,99.99
2018-04-17T05:27:23.868Z,99.99
2018-04-17T05:28:23.821Z,99.99
2018-04-17T05:29:23.811Z,99.99
2018-04-17T05:30:23.804Z,99.99
2018-04-17T05:31:23.769Z,99.99
2018-04-17T05:32:23.756Z,99.99
2018-04-17T05:33:23.734Z,99.99
2018-04-17T05:34:23.727Z,99.99
2018-04-17T05:35:23.710Z,99.99
2018-04-17T05:36:23.679Z,99.99
2018-04-17T05:37:23.663Z,99.99
2018-04-17T05:38:23.654Z,99.99
2018-04-17T05:39:23.644Z,99.99
2018-04-17T05:40:23.621Z,99.99
2018-04-17T05:41:23.606Z,99.99
2018-04-17T05:42:23.580Z,99.99
2018-04-17T05:43:23.574Z,99.99
2018-04-17T05:44:23.563Z,99.99
2018-04-17T05:45:23.532Z,99.99
2018-04-17T05:46:23.545Z,99.99
2018-04-17T05:47:23.500Z,99.99
2018-04-17T05:48:23.487Z,99.99
2018-04-17T05:49:23.471Z,99.99
2018-04-17T05:50:23.455Z,99.99
2018-04-17T05:51:23.445Z,99.99
2018-04-17T05:52:23.423Z,99.99
2018-04-17T05:53:23.409Z,99.99
2018-04-17T05:54:23.395Z,99.99
2018-04-17T05:55:23.368Z,99.99
2018-04-17T05:56:23.349Z,99.99
2018-04-17T05:57:23.336Z,99.99
2018-04-17T05:58:23.313Z,99.99
2018-04-17T05:59:23.305Z,99.99
2018-04-17T06:00:23.285Z,99.99
2018-04-17T06:01:23.269Z,99.99
2018-04-17T06:02:23.256Z,99.99
2018-04-17T06:03:23.237Z,99.99
2018-04-17T06:04:23.224Z,99.99
2018-04-17T06:05:23.211Z,99.99
2018-04-17T06:06:23.192Z,99.99
2018-04-17T06:07:23.178Z,99.99
2018-04-17T06:08:23.159Z,99.99
2018-04-17T06:09:23.139Z,99.99
2018-04-17T06:10:23.132Z,99.99
2018-04-17T06:11:23.113Z,99.99
2018-04-17T06:12:23.105Z,99.99
2018-04-17T06:13:23.078Z,99.99
2018-04-17T06:14:23.056Z,99.99
2018-04-17T06:15:23.053Z,99.99
2018-04-17T06:16:23.030Z,99.99
2018-04-17T06:17:23.019Z,99.99
2018-04-17T06:18:22.999Z,99.99
2018-04-17T06:19:22.979Z,99.99
2018-04-17T06:20:22.961Z,99.99
2018-04-17T06:21:22.951Z,99.99
2018-04-17T06:22:22.941Z,99.99
2018-04-17T06:23:22.962Z,99.99
2018-04-17T06:24:22.904Z,99.99
2018-04-17T06:25:22.889Z,99.99
2018-04-17T06:26:22.872Z,99.99
2018-04-17T06:27:22.863Z,99.99
2018-04-17T06:28:22.851Z,99.99
2018-04-17T06:29:22.822Z,99.99
2018-04-17T06:30:22.813Z,99.99
2018-04-17T06:31:22.800Z,99.99
2018-04-17T06:32:22.795Z,99.99
2018-04-17T06:33:22.766Z,99.99
2018-04-17T06:34:22.747Z,99.99
2018-04-17T06:35:22.730Z,99.99
2018-04-17T06:36:22.712Z,99.99
2018-04-17T06:37:22.698Z,99.99
2018-04-17T06:38:22.683Z,99.99
2018-04-17T06:39:22.672Z,99.99
2018-04-17T06:40:22.650Z,99.99
2018-04-17T06:41:22.642Z,99.99
2018-04-17T06:42:22.627Z,99.99
2018-04-17T06:43:22.608Z,99.99
2018-04-17T06:44:22.596Z,99.99
2018-04-17T06:45:22.580Z,99.99
2018-04-17T06:46:22.560Z,99.99
2018-04-17T06:47:22.590Z,99.99
2018-04-17T06:48:22.552Z,99.99
2018-04-17T06:49:22.513Z,99.99
2018-04-17T06:50:22.507Z,99.99
2018-04-17T06:51:22.490Z,99.99
2018-04-17T06:52:22.472Z,99.99
2018-04-17T06:53:22.459Z,99.99
2018-04-17T06:54:22.447Z,99.99
2018-04-17T06:55:22.433Z,99.99
2018-04-17T06:56:22.424Z,99.99
2018-04-17T06:57:22.404Z,99.99
2018-04-17T06:58:22.382Z,99.99
2018-04-17T06:59:22.373Z,99.99
2018-04-17T07:00:22.358Z,99.99
2018-04-17T07:01:22.351Z,99.99
2018-04-17T07:02:22.325Z,99.99
2018-04-17T07:03:22.324Z,99.99
2018-04-17T07:04:22.296Z,99.99
2018-04-17T07:05:22.299Z,99.99
2018-04-17T07:06:22.277Z,99.99
2018-04-17T07:07:22.259Z,99.99
2018-04-17T07:08:22.246Z,99.99
2018-04-17T07:09:22.220Z,99.99
2018-04-17T07:10:22.207Z,99.99
2018-04-17T07:11:22.217Z,99.99
2018-04-17T07:12:22.193Z,99.99
2018-04-17T07:13:22.180Z,99.99
2018-04-17T07:14:22.164Z,99.99
2018-04-17T07:15:22.149Z,99.99
2018-04-17T07:16:22.151Z,99.99
2018-04-17T07:17:22.113Z,99.99
2018-04-17T07:18:22.110Z,99.99
2018-04-17T07:19:22.085Z,99.99
2018-04-17T07:20:22.072Z,99.99
2018-04-17T07:21:22.059Z,99.99
2018-04-17T07:22:22.040Z,99.99
2018-04-17T07:23:22.027Z,99.99
2018-04-17T07:24:22.017Z,99.99
2018-04-17T07:25:22.013Z,99.99
2018-04-17T07:26:21.992Z,99.99
2018-04-17T07:27:21.982Z,99.99
2018-04-17T07:28:21.971Z,99.99
2018-04-17T07:29:21.981Z,99.99
2018-04-17T07:30:21.929Z,99.99
2018-04-17T07:31:21.917Z,99.99
2018-04-17T07:32:21.912Z,99.99
2018-04-17T07:33:21.887Z,99.99
2018-04-17T07:34:21.884Z,99.99
2018-04-17T07:35:21.858Z,99.99
2018-04-17T07:36:21.849Z,99.99
2018-04-17T07:37:21.829Z,99.99
2018-04-17T07:38:21.823Z,99.99
2018-04-17T07:39:21.820Z,99.99
2018-04-17T07:40:21.829Z,99.99
2018-04-17T07:41:21.794Z,99.99
2018-04-17T07:42:21.771Z,99.99
2018-04-17T07:43:21.763Z,99.99
2018-04-17T07:44:21.752Z,99.99
2018-04-17T07:45:21.732Z,99.99
2018-04-17T07:46:21.711Z,99.99
2018-04-17T07:47:21.709Z,99.99
2018-04-17T07:48:21.681Z,99.99
2018-04-17T07:49:21.676Z,99.99
2018-04-17T07:50:21.659Z,99.99
2018-04-17T07:51:21.640Z,99.99
2018-04-17T07:52:21.634Z,99.99
2018-04-17T07:53:21.624Z,99.71
2018-04-17T07:54:21.608Z,99.99
2018-04-17T07:55:21.591Z,99.99
2018-04-17T07:56:21.575Z,99.99
2018-04-17T07:57:21.565Z,99.99
2018-04-17T07:58:21.562Z,99.86
2018-04-17T07:59:21.536Z,98.52
2018-04-17T08:00:21.520Z,98.24
2018-04-17T08:01:21.530Z,97.56
2018-04-17T08:02:21.507Z,98.71
2018-04-17T08:03:21.492Z,99.19
2018-04-17T08:04:21.496Z,97.85
2018-04-17T08:05:21.462Z,96.80
2018-04-17T08:06:21.453Z,97.56
2018-04-17T08:07:21.434Z,97.18
2018-04-17T08:08:21.427Z,96.89
2018-04-17T08:09:21.402Z,97.75
2018-04-17T08:10:21.395Z,97.66
2018-04-17T08:11:21.383Z,97.28
2018-04-17T08:12:21.376Z,98.33
2018-04-17T08:13:21.363Z,96.22
2018-04-17T08:14:21.347Z,96.32
2018-04-17T08:15:21.341Z,96.80
2018-04-17T08:16:21.321Z,96.27
2018-04-17T08:17:21.311Z,95.51
2018-04-17T08:18:21.300Z,96.18
2018-04-17T08:19:21.288Z,96.66
2018-04-17T08:20:21.267Z,95.70
2018-04-17T08:21:21.267Z,96.27
2018-04-17T08:22:21.242Z,95.31
2018-04-17T08:23:21.242Z,98.52
2018-04-17T08:24:21.229Z,94.60
2018-04-17T08:25:21.222Z,93.54
2018-04-17T08:26:21.203Z,94.02
2018-04-17T08:27:21.200Z,94.60
2018-04-17T08:28:21.184Z,94.98
2018-04-17T08:29:21.158Z,94.21
2018-04-17T08:30:21.152Z,93.02
2018-04-17T08:31:21.145Z,93.78
2018-04-17T08:32:21.123Z,96.37
2018-04-17T08:33:21.120Z,93.78
2018-04-17T08:34:21.101Z,92.06
2018-04-17T08:35:21.088Z,93.02
2018-04-17T08:36:21.074Z,92.82
2018-04-17T08:37:21.063Z,91.43
2018-04-17T08:38:21.053Z,90.67
2018-04-17T08:39:21.040Z,90.19
2018-04-17T08:40:21.040Z,91.72
2018-04-17T08:41:21.021Z,89.61
2018-04-17T08:42:21.023Z,89.56
2018-04-17T08:43:21.007Z,88.51
2018-04-17T08:44:20.992Z,92.24
2018-04-17T08:45:20.977Z,92.58
2018-04-17T08:46:20.970Z,88.17
2018-04-17T08:47:20.957Z,87.59
2018-04-17T08:48:20.955Z,86.05
2018-04-17T08:49:20.938Z,85.14
2018-04-17T08:50:20.933Z,84.60
2018-04-17T08:51:20.925Z,82.24
2018-04-17T08:52:20.924Z,80.80
2018-04-17T08:53:20.906Z,80.27
2018-04-17T08:54:20.900Z,79.44
2018-04-17T08:55:20.900Z,77.23
2018-04-17T08:56:20.890Z,77.75
2018-04-17T08:57:20.887Z,78.85
2018-04-17T08:58:20.881Z,75.48
2018-04-17T08:59:20.895Z,75.19
2018-04-17T09:00:20.873Z,74.45
2018-04-17T09:01:20.871Z,73.82
2018-04-17T09:02:20.871Z,70.73
2018-04-17T09:03:20.877Z,71.98
2018-04-17T09:04:20.862Z,70.28
2018-04-17T09:05:20.862Z,71.64
2018-04-17T09:06:20.865Z,69.55
2018-04-17T09:07:20.858Z,71.09
2018-04-17T09:08:20.855Z,69.26
2018-04-17T09:09:20.871Z,70.16
2018-04-17T09:10:20.855Z,67.65
2018-04-17T09:11:20.858Z,67.94
2018-04-17T09:12:20.852Z,68.87
2018-04-17T09:13:20.861Z,69.49
2018-04-17T09:14:20.853Z,68.84
2018-04-17T09:15:20.852Z,65.75
2018-04-17T09:16:20.853Z,65.08
2018-04-17T09:17:20.855Z,63.89
2018-04-17T09:18:20.862Z,67.27
2018-04-17T09:19:20.868Z,68.26
2018-04-17T09:20:20.855Z,68.75
2018-04-17T09:21:20.862Z,68.88
2018-04-17T09:22:20.862Z,64.82
2018-04-17T09:23:20.865Z,66.59
2018-04-17T09:24:20.858Z,66.56
2018-04-17T09:25:20.865Z,65.53
2018-04-17T09:26:20.859Z,63.43
2018-04-17T09:27:20.871Z,65.66
2018-04-17T09:28:20.865Z,62.37
2018-04-17T09:29:20.905Z,61.79
2018-04-17T09:30:20.859Z,65.85
2018-04-17T09:31:20.862Z,63.98
2018-04-17T09:32:20.871Z,62.66
2018-04-17T09:33:20.865Z,60.92
2018-04-17T09:34:20.872Z,59.86
2018-04-17T09:35:20.883Z,57.79
2018-04-17T09:36:20.868Z,61.08
2018-04-17T09:37:20.875Z,60.82
2018-04-17T09:38:20.875Z,62.47
2018-04-17T09:39:20.875Z,62.56
2018-04-17T09:40:20.875Z,62.79
2018-04-17T09:41:20.878Z,61.43
2018-04-17T09:42:20.908Z,61.08
2018-04-17T09:43:20.888Z,58.95
2018-04-17T09:44:20.884Z,59.01
2018-04-17T09:45:20.887Z,57.95
2018-04-17T09:46:20.894Z,58.17
2018-04-17T09:47:20.891Z,56.50
2018-04-17T09:48:20.898Z,58.60
2018-04-17T09:49:20.900Z,58.21
2018-04-17T09:50:20.897Z,58.47
2018-04-17T09:51:20.906Z,60.72
2018-04-17T09:52:20.905Z,61.98
2018-04-17T09:53:20.923Z,59.28
2018-04-17T09:54:20.924Z,59.28
2018-04-17T09:55:20.920Z,58.60
2018-04-17T09:56:20.914Z,58.95
2018-04-17T09:57:20.919Z,60.28
2018-04-17T09:58:20.926Z,62.98
2018-04-17T09:59:20.928Z,63.79
2018-04-17T10:00:20.923Z,63.73
2018-04-17T10:01:20.929Z,59.50
2018-04-17T10:02:20.929Z,54.75
2018-04-17T10:03:20.938Z,59.21
2018-04-17T10:04:20.932Z,57.95
2018-04-17T10:05:20.932Z,57.79
2018-04-17T10:06:20.939Z,57.18
2018-04-17T10:07:20.945Z,59.22
2018-04-17T10:08:20.937Z,61.99
2018-04-17T10:09:20.942Z,63.92
2018-04-17T10:10:20.946Z,62.05
2018-04-17T10:11:20.942Z,63.43
2018-04-17T10:12:20.939Z,62.37
2018-04-17T10:13:20.938Z,64.82
2018-04-17T10:14:20.948Z,66.78
2018-04-17T10:15:20.942Z,64.01
2018-04-17T10:16:20.944Z,63.37
2018-04-17T10:17:20.960Z,57.28
2018-04-17T10:18:20.942Z,60.75
2018-04-17T10:19:20.948Z,57.59
2018-04-17T10:20:20.945Z,54.15
2018-04-17T10:21:20.948Z,57.15
2018-04-17T10:22:20.951Z,57.34
2018-04-17T10:23:20.952Z,62.40
2018-04-17T10:24:20.957Z,61.36
2018-04-17T10:25:20.954Z,53.33
2018-04-17T10:26:20.958Z,53.91
2018-04-17T10:27:20.964Z,57.20
2018-04-17T10:28:20.967Z,53.72
2018-04-17T10:29:20.964Z,56.92
2018-04-17T10:30:21.023Z,54.39
2018-04-17T10:31:20.984Z,55.88
2018-04-17T10:32:20.988Z,54.06
2018-04-17T10:33:20.980Z,50.96
2018-04-17T10:34:20.992Z,49.02
2018-04-17T10:35:20.990Z,50.02
2018-04-17T10:36:20.996Z,50.21
2018-04-17T10:37:20.996Z,51.50
2018-04-17T10:38:21.002Z,52.11
2018-04-17T10:39:21.003Z,53.59
2018-04-17T10:40:21.010Z,54.78
2018-04-17T10:41:21.016Z,55.41
2018-04-17T10:42:21.019Z,45.14
2018-04-17T10:43:21.023Z,46.24
2018-04-17T10:44:21.026Z,49.12
2018-04-17T10:45:21.036Z,50.33
2018-04-17T10:46:21.046Z,53.17
2018-04-17T10:47:21.045Z,51.81
2018-04-17T10:48:21.052Z,52.42
2018-04-17T10:49:21.059Z,50.19
2018-04-17T10:50:21.068Z,49.07
2018-04-17T10:51:21.068Z,50.70
2018-04-17T10:52:21.074Z,54.01
2018-04-17T10:53:21.084Z,58.14
2018-04-17T10:54:21.087Z,59.45
2018-04-17T10:55:21.093Z,57.28
2018-04-17T10:56:21.100Z,48.54
2018-04-17T10:57:21.110Z,47.81
2018-04-17T10:58:21.122Z,50.31
2018-04-17T10:59:21.119Z,51.76
2018-04-17T11:00:21.128Z,52.47
2018-04-17T11:01:21.135Z,48.00
2018-04-17T11:02:21.157Z,47.03
2018-04-17T11:03:21.174Z,46.02
2018-04-17T11:04:21.170Z,49.24
2018-04-17T11:05:21.166Z,49.17
2018-04-17T11:06:21.167Z,49.19
2018-04-17T11:07:21.180Z,47.06
2018-04-17T11:08:21.186Z,48.64
2018-04-17T11:09:21.192Z,46.72
2018-04-17T11:10:21.267Z,44.07
2018-04-17T11:11:21.218Z,44.40
2018-04-17T11:12:21.221Z,45.95
2018-04-17T11:13:21.223Z,53.92
2018-04-17T11:14:21.231Z,55.41
2018-04-17T11:15:21.234Z,51.77
2018-04-17T11:16:21.241Z,45.97
2018-04-17T11:17:21.251Z,43.82
2018-04-17T11:18:21.260Z,45.89
2018-04-17T11:19:21.264Z,43.95
2018-04-17T11:20:21.273Z,41.30
2018-04-17T11:21:21.281Z,44.97
2018-04-17T11:22:21.293Z,42.99
2018-04-17T11:23:21.295Z,43.54
2018-04-17T11:24:21.309Z,44.32
2018-04-17T11:25:21.319Z,53.34
2018-04-17T11:26:21.321Z,49.29
2018-04-17T11:27:21.327Z,47.69
2018-04-17T11:28:21.336Z,49.95
2018-04-17T11:29:21.346Z,48.30
2018-04-17T11:30:21.359Z,50.12
2018-04-17T11:31:21.362Z,50.34
2018-04-17T11:32:21.372Z,49.95
2018-04-17T11:33:21.400Z,48.71
2018-04-17T11:34:21.426Z,45.72
2018-04-17T11:35:21.399Z,42.11
2018-04-17T11:36:21.401Z,41.93
2018-04-17T11:37:21.405Z,44.38
2018-04-17T11:38:21.456Z,43.30
2018-04-17T11:39:21.423Z,45.35
2018-04-17T11:40:21.433Z,39.69
2018-04-17T11:41:21.437Z,42.49
2018-04-17T11:42:21.447Z,44.99
2018-04-17T11:43:21.452Z,40.62
2018-04-17T11:44:21.462Z,42.39
2018-04-17T11:45:21.469Z,44.26
2018-04-17T11:46:21.478Z,38.50
2018-04-17T11:47:21.485Z,39.14
2018-04-17T11:48:21.490Z,39.29
2018-04-17T11:49:21.507Z,43.86
2018-04-17T11:50:21.506Z,47.18
2018-04-17T11:51:21.516Z,49.92
2018-04-17T11:52:21.533Z,47.59
2018-04-17T11:53:21.539Z,47.40
2018-04-17T11:54:21.545Z,44.27
2018-04-17T11:55:21.558Z,53.13
2018-04-17T11:56:21.558Z,47.32
2018-04-17T11:57:21.570Z,51.21
2018-04-17T11:58:21.575Z,49.76
2018-04-17T11:59:21.584Z,47.20
2018-04-17T12:00:21.596Z,48.57
2018-04-17T12:01:21.598Z,44.17
2018-04-17T12:02:21.609Z,46.48
2018-04-17T12:03:21.610Z,48.15
2018-04-17T12:04:21.617Z,45.04
2018-04-17T12:05:21.629Z,48.95
2018-04-17T12:06:21.633Z,52.69
2018-04-17T12:07:21.640Z,43.46
2018-04-17T12:08:21.645Z,51.84
2018-04-17T12:09:21.656Z,43.79
2018-04-17T12:10:21.662Z,40.50
2018-04-17T12:11:21.672Z,40.50
2018-04-17T12:12:21.683Z,42.72
2018-04-17T12:13:21.684Z,46.81
2018-04-17T12:14:21.691Z,44.18
2018-04-17T12:15:21.701Z,45.54
2018-04-17T12:16:21.704Z,49.51
2018-04-17T12:17:21.715Z,48.73
2018-04-17T12:18:21.722Z,40.54
2018-04-17T12:19:21.728Z,43.85
2018-04-17T12:20:21.795Z,46.77
2018-04-17T12:21:21.754Z,47.83
2018-04-17T12:22:21.747Z,39.28
2018-04-17T12:23:21.755Z,41.61
2018-04-17T12:24:21.773Z,42.97
2018-04-17T12:25:21.773Z,45.67
2018-04-17T12:26:21.779Z,46.06
2018-04-17T12:27:21.789Z,42.90
2018-04-17T12:28:21.802Z,43.96
2018-04-17T12:29:21.806Z,39.70
2018-04-17T12:30:21.805Z,47.61
2018-04-17T12:31:21.821Z,41.38
2018-04-17T12:32:21.824Z,38.05
2018-04-17T12:33:21.828Z,43.81
2018-04-17T12:34:21.838Z,44.57
2018-04-17T12:35:21.847Z,39.51
2018-04-17T12:36:21.857Z,47.32
2018-04-17T12:37:21.866Z,42.94
2018-04-17T12:38:21.888Z,46.08
2018-04-17T12:39:21.878Z,44.62
2018-04-17T12:40:21.888Z,47.25
2018-04-17T12:41:21.892Z,43.44
2018-04-17T12:42:21.909Z,39.62
2018-04-17T12:43:21.910Z,37.93
2018-04-17T12:44:21.920Z,41.73
2018-04-17T12:45:21.926Z,43.58
2018-04-17T12:46:21.939Z,47.59
2018-04-17T12:47:21.940Z,47.78
2018-04-17T12:48:21.959Z,41.14
2018-04-17T12:49:21.955Z,43.38
2018-04-17T12:50:21.967Z,42.99
2018-04-17T12:51:21.975Z,44.92
2018-04-17T12:52:21.980Z,43.95